Time;durP1;ratioP1;P1;durP2;ratioP2;P2;SDS_P1;SDS_P2;PMS_P1;PMS_P2;Temp;Humidity;BMP_temperature;BMP_pressure;BME280_temperature;BME280_humidity;BME280_pressure;Samples;Min_cycle;Max_cycle;Signal;HPM_P1;HPM_P2
2021/08/13 00:01:19;;;;;;;0.00;0.00;;;18.30;72.60;;;;;;4999039;28;20061;-88
2021/08/13 00:03:45;;;;;;;0.00;0.00;;;18.30;72.60;;;;;;4987675;28;20026;-88
2021/08/13 00:06:11;;;;;;;0.10;0.10;;;18.20;72.70;;;;;;4978044;28;20102;-88
2021/08/13 00:08:37;;;;;;;0.10;0.10;;;18.20;72.80;;;;;;4994930;28;20030;-88
2021/08/13 00:11:02;;;;;;;0.10;0.10;;;18.20;73.10;;;;;;4977838;28;20489;-88
2021/08/13 00:13:28;;;;;;;0.10;0.10;;;18.20;73.40;;;;;;4995262;28;20023;-87
2021/08/13 00:15:54;;;;;;;0.10;0.10;;;18.10;73.50;;;;;;4981238;28;20571;-88
2021/08/13 00:18:20;;;;;;;0.00;0.00;;;18.10;73.50;;;;;;4981677;28;20023;-88
2021/08/13 00:20:46;;;;;;;0.10;0.10;;;18.10;73.60;;;;;;4984674;28;20566;-88
2021/08/13 00:23:12;;;;;;;0.00;0.00;;;18.10;73.80;;;;;;4984985;28;20026;-89
2021/08/13 00:25:37;;;;;;;0.00;0.00;;;18.10;73.90;;;;;;4988386;28;20034;-88
2021/08/13 00:28:04;;;;;;;0.10;0.10;;;18.10;74.00;;;;;;4986490;28;20050;-88
2021/08/13 00:30:30;;;;;;;0.10;0.10;;;18.10;73.80;;;;;;4988512;28;20045;-88
2021/08/13 00:32:55;;;;;;;0.10;0.10;;;18.10;73.60;;;;;;4988640;28;20026;-89
2021/08/13 00:35:21;;;;;;;0.10;0.10;;;18.20;73.60;;;;;;4989958;28;20043;-88
2021/08/13 00:37:47;;;;;;;0.00;0.00;;;18.20;73.60;;;;;;4994635;28;20014;-88
2021/08/13 00:40:13;;;;;;;0.00;0.00;;;18.20;73.60;;;;;;4989640;28;20038;-89
2021/08/13 00:42:38;;;;;;;0.00;0.00;;;18.20;73.50;;;;;;4999045;28;20019;-89
2021/08/13 00:45:05;;;;;;;0.03;0.03;;;18.20;73.50;;;;;;4998716;28;20423;-88
2021/08/13 00:47:31;;;;;;;0.10;0.10;;;18.20;73.50;;;;;;4981317;28;20050;-88
2021/08/13 00:49:57;;;;;;;0.00;0.00;;;18.20;73.50;;;;;;4984996;28;20042;-88
2021/08/13 00:52:24;;;;;;;0.08;0.08;;;18.20;73.60;;;;;;4990570;28;20019;-89
2021/08/13 00:54:50;;;;;;;0.10;0.10;;;18.20;73.50;;;;;;4993250;28;20045;-87
2021/08/13 00:57:16;;;;;;;0.00;0.00;;;18.20;73.60;;;;;;4987461;28;20027;-88
2021/08/13 00:59:42;;;;;;;0.10;0.10;;;18.20;73.60;;;;;;4982802;28;20030;-88
2021/08/13 01:02:08;;;;;;;0.00;0.00;;;18.20;73.60;;;;;;4988529;28;20027;-88
2021/08/13 01:04:34;;;;;;;0.10;0.10;;;18.20;73.70;;;;;;4987744;28;20069;-88
2021/08/13 01:07:01;;;;;;;0.10;0.10;;;18.20;73.80;;;;;;4981033;28;20046;-88
2021/08/13 01:09:27;;;;;;;0.10;0.10;;;18.20;73.80;;;;;;4980869;28;20035;-88
2021/08/13 01:12:03;;;;;;;0.00;0.00;;;18.20;73.80;;;;;;4997992;28;20025;-88
2021/08/13 01:14:32;;;;;;;0.00;0.00;;;18.20;73.80;;;;;;4980685;28;20043;-88
2021/08/13 01:16:59;;;;;;;0.10;0.10;;;18.10;73.90;;;;;;4993471;28;20033;-88
2021/08/13 01:19:45;;;;;;;0.00;0.00;;;18.10;73.90;;;;;;4987901;28;20037;-87
2021/08/13 01:22:17;;;;;;;0.10;0.10;;;18.10;74.00;;;;;;5003719;28;20030;-88
2021/08/13 01:24:47;;;;;;;0.00;0.00;;;18.00;74.10;;;;;;4981987;28;20022;-88
2021/08/13 01:27:17;;;;;;;0.10;0.10;;;18.00;74.30;;;;;;4981782;28;20033;-87
2021/08/13 01:29:51;;;;;;;0.10;0.10;;;18.00;74.30;;;;;;4987512;28;20028;-87
2021/08/13 01:32:17;;;;;;;0.10;0.10;;;18.00;74.60;;;;;;4987769;28;20514;-88
2021/08/13 01:34:47;;;;;;;0.10;0.10;;;17.90;74.60;;;;;;4986417;28;20038;-88
2021/08/13 01:37:14;;;;;;;0.08;0.08;;;17.90;74.70;;;;;;4972476;28;20044;-88
2021/08/13 01:39:44;;;;;;;0.03;0.03;;;17.90;74.80;;;;;;4989800;28;20026;-88
2021/08/13 01:42:11;;;;;;;0.05;0.05;;;17.90;74.90;;;;;;4995234;28;20034;-87
2021/08/13 01:44:38;;;;;;;0.10;0.10;;;17.90;75.20;;;;;;4991573;28;20033;-87
2021/08/13 01:47:05;;;;;;;0.00;0.00;;;17.80;75.30;;;;;;5006949;28;20384;-88
2021/08/13 01:49:32;;;;;;;0.10;0.10;;;17.80;75.50;;;;;;4986568;28;20030;-88
2021/08/13 01:51:59;;;;;;;0.00;0.00;;;17.80;75.60;;;;;;4991132;28;20041;-87
2021/08/13 01:54:26;;;;;;;0.08;0.08;;;17.80;75.80;;;;;;4980078;28;20022;-88
2021/08/13 01:56:54;;;;;;;0.10;0.10;;;17.70;75.80;;;;;;4980136;28;20125;-88
2021/08/13 01:59:20;;;;;;;0.03;0.03;;;17.70;76.00;;;;;;4980503;28;20027;-88
2021/08/13 02:01:47;;;;;;;0.00;0.00;;;17.70;76.20;;;;;;4998440;28;20035;-88
2021/08/13 02:04:20;;;;;;;0.10;0.10;;;17.60;76.10;;;;;;4982894;28;20027;-87
2021/08/13 02:06:49;;;;;;;0.10;0.10;;;17.60;76.20;;;;;;4988668;28;20030;-88
2021/08/13 02:09:16;;;;;;;0.10;0.10;;;17.50;76.40;;;;;;4994250;28;20041;-88
2021/08/13 02:11:43;;;;;;;0.10;0.10;;;17.50;76.50;;;;;;5004238;28;20023;-88
2021/08/13 02:14:09;;;;;;;0.00;0.00;;;17.50;76.60;;;;;;5020462;28;20090;-88
2021/08/13 02:16:37;;;;;;;0.03;0.03;;;17.50;76.80;;;;;;4986732;28;20027;-87
2021/08/13 02:19:23;;;;;;;0.10;0.10;;;17.40;76.90;;;;;;4980025;28;20050;-88
2021/08/13 02:21:50;;;;;;;0.10;0.10;;;17.40;77.30;;;;;;4985153;28;20041;-88
2021/08/13 02:24:19;;;;;;;0.10;0.10;;;17.30;77.30;;;;;;4979915;28;20452;-88
2021/08/13 02:26:46;;;;;;;0.10;0.10;;;17.30;77.40;;;;;;4986191;28;20015;-88
2021/08/13 02:29:11;;;;;;;0.05;0.05;;;17.30;77.50;;;;;;4996898;28;20050;-88
2021/08/13 02:31:38;;;;;;;0.10;0.10;;;17.30;77.70;;;;;;4991842;28;20037;-88
2021/08/13 02:34:04;;;;;;;0.10;0.10;;;17.20;77.80;;;;;;4983266;28;20031;-88
2021/08/13 02:36:39;;;;;;;0.10;0.10;;;17.20;78.00;;;;;;4979353;28;20042;-88
2021/08/13 02:39:11;;;;;;;0.10;0.10;;;17.20;78.10;;;;;;4979118;28;20026;-88
2021/08/13 02:41:40;;;;;;;0.10;0.10;;;17.20;78.30;;;;;;4980242;28;20031;-88
2021/08/13 02:44:08;;;;;;;0.05;0.05;;;17.10;78.30;;;;;;4997478;28;20034;-88
2021/08/13 02:46:39;;;;;;;0.10;0.10;;;17.10;78.50;;;;;;4980809;28;20050;-88
2021/08/13 02:49:09;;;;;;;0.00;0.00;;;17.10;78.70;;;;;;4980659;28;20033;-88
2021/08/13 02:51:39;;;;;;;0.10;0.10;;;17.10;78.80;;;;;;4998612;28;20037;-88
2021/08/13 02:54:06;;;;;;;0.10;0.10;;;17.10;79.00;;;;;;4983415;28;20160;-87
2021/08/13 02:56:36;;;;;;;0.10;0.10;;;17.10;78.90;;;;;;4991121;28;20046;-87
2021/08/13 02:59:06;;;;;;;0.10;0.10;;;17.10;79.10;;;;;;4988000;28;20045;-88
2021/08/13 03:01:34;;;;;;;0.10;0.10;;;17.10;79.30;;;;;;4987659;28;20026;-88
2021/08/13 03:04:02;;;;;;;0.10;0.10;;;17.10;79.40;;;;;;4988110;28;20023;-88
2021/08/13 03:06:35;;;;;;;0.10;0.10;;;17.10;80.00;;;;;;4992115;28;20041;-88
2021/08/13 03:09:01;;;;;;;0.10;0.10;;;17.10;79.50;;;;;;4979214;28;20479;-88
2021/08/13 03:11:29;;;;;;;0.05;0.05;;;17.10;79.60;;;;;;4979222;28;20081;-88
2021/08/13 03:13:54;;;;;;;0.10;0.10;;;17.10;79.70;;;;;;4990847;28;20022;-87
2021/08/13 03:16:20;;;;;;;0.10;0.10;;;17.10;79.70;;;;;;4997051;28;20105;-88
2021/08/13 03:18:47;;;;;;;0.10;0.10;;;17.10;79.90;;;;;;5000761;28;20026;-87
2021/08/13 03:21:13;;;;;;;0.00;0.00;;;17.10;79.90;;;;;;4983280;28;20022;-88
2021/08/13 03:23:40;;;;;;;0.10;0.10;;;17.20;79.90;;;;;;4978555;28;20030;-88
2021/08/13 03:26:07;;;;;;;0.00;0.00;;;17.20;79.90;;;;;;4979778;28;20031;-88
2021/08/13 03:28:36;;;;;;;0.10;0.10;;;17.30;79.90;;;;;;4986843;28;20523;-88
2021/08/13 03:31:02;;;;;;;0.10;0.10;;;17.30;79.80;;;;;;4989616;28;20033;-88
2021/08/13 03:33:28;;;;;;;0.10;0.10;;;17.30;79.50;;;;;;4986042;28;20053;-88
2021/08/13 03:35:57;;;;;;;0.10;0.10;;;17.40;79.60;;;;;;4981313;28;20038;-89
2021/08/13 03:38:23;;;;;;;0.05;0.05;;;17.40;79.60;;;;;;4991598;28;20404;-89
2021/08/13 03:40:49;;;;;;;0.05;0.05;;;17.40;79.60;;;;;;4978696;28;20110;-89
2021/08/13 03:43:14;;;;;;;0.00;0.00;;;17.40;79.60;;;;;;4978761;28;20041;-89
2021/08/13 03:45:40;;;;;;;0.00;0.00;;;17.50;79.70;;;;;;4981132;28;20033;-89
2021/08/13 03:48:06;;;;;;;0.10;0.10;;;17.50;79.70;;;;;;4980553;28;20523;-90
2021/08/13 03:50:32;;;;;;;0.00;0.00;;;17.60;79.80;;;;;;4976664;28;20030;-89
2021/08/13 03:52:58;;;;;;;0.10;0.10;;;17.60;79.80;;;;;;4978090;28;20030;-89
2021/08/13 03:55:24;;;;;;;0.10;0.10;;;17.70;79.70;;;;;;4978006;28;20035;-90
2021/08/13 03:57:49;;;;;;;0.10;0.10;;;17.80;79.70;;;;;;4979799;28;20030;-89
2021/08/13 04:00:16;;;;;;;0.10;0.10;;;17.90;79.60;;;;;;4984271;28;20027;-89
2021/08/13 04:02:42;;;;;;;0.10;0.10;;;18.00;79.40;;;;;;5011530;28;20038;-89
2021/08/13 04:05:08;;;;;;;0.00;0.00;;;18.10;79.10;;;;;;4995409;28;20053;-89
2021/08/13 04:07:34;;;;;;;0.00;0.00;;;18.20;79.00;;;;;;4997433;28;20034;-89
2021/08/13 04:09:59;;;;;;;0.00;0.00;;;18.30;78.70;;;;;;4989307;28;20129;-88
2021/08/13 04:12:25;;;;;;;0.10;0.10;;;18.50;78.50;;;;;;4980805;28;20480;-87
2021/08/13 04:14:51;;;;;;;0.10;0.10;;;18.60;78.40;;;;;;4978364;28;20121;-89
2021/08/13 04:17:17;;;;;;;0.10;0.10;;;18.70;78.10;;;;;;4980001;28;20101;-89
2021/08/13 04:19:43;;;;;;;0.10;0.10;;;18.80;77.90;;;;;;4981334;28;20061;-89
2021/08/13 04:22:09;;;;;;;0.10;0.10;;;18.90;77.60;;;;;;4977982;28;20500;-89
2021/08/13 04:24:34;;;;;;;0.08;0.08;;;19.00;77.40;;;;;;4986521;28;20376;-88
2021/08/13 04:27:01;;;;;;;0.10;0.10;;;19.10;77.10;;;;;;4978572;28;20030;-90
2021/08/13 04:29:27;;;;;;;0.00;0.00;;;19.20;76.60;;;;;;4977908;28;20034;-89
2021/08/13 04:31:53;;;;;;;0.03;0.03;;;19.30;76.40;;;;;;4978011;28;20361;-89
2021/08/13 04:34:19;;;;;;;0.00;0.00;;;19.40;76.00;;;;;;4979260;28;20062;-89
2021/08/13 04:36:45;;;;;;;0.10;0.10;;;19.50;75.60;;;;;;4977549;28;20042;-89
2021/08/13 04:39:11;;;;;;;0.00;0.00;;;19.60;75.30;;;;;;4977746;28;20384;-88
2021/08/13 04:41:37;;;;;;;0.10;0.10;;;19.70;75.00;;;;;;4978012;28;20035;-90
2021/08/13 04:44:03;;;;;;;0.00;0.00;;;19.90;74.50;;;;;;4977549;28;20357;-88
2021/08/13 04:46:29;;;;;;;0.00;0.00;;;20.10;74.00;;;;;;4996620;28;20449;-89
2021/08/13 04:48:54;;;;;;;0.05;0.05;;;20.20;73.40;;;;;;4986718;28;20022;-90
2021/08/13 04:51:20;;;;;;;0.00;0.00;;;20.30;73.00;;;;;;4977620;28;20423;-88
2021/08/13 04:53:46;;;;;;;0.10;0.10;;;20.50;73.00;;;;;;4994974;28;20030;-89
2021/08/13 04:56:11;;;;;;;0.00;0.00;;;20.80;73.30;;;;;;4977312;28;20034;-89
2021/08/13 04:58:37;;;;;;;0.08;0.08;;;21.00;73.00;;;;;;4977255;28;20384;-89
2021/08/13 05:01:03;;;;;;;0.00;0.00;;;21.30;72.60;;;;;;4997198;28;20085;-87
2021/08/13 05:03:29;;;;;;;0.00;0.00;;;21.60;72.00;;;;;;4983035;28;20023;-89
2021/08/13 05:05:54;;;;;;;0.05;0.05;;;21.80;71.70;;;;;;4995410;28;20033;-88
2021/08/13 05:08:20;;;;;;;0.00;0.00;;;22.10;70.60;;;;;;5020780;28;20045;-88
2021/08/13 05:10:46;;;;;;;0.00;0.00;;;22.40;70.20;;;;;;5003716;28;20034;-90
2021/08/13 05:13:12;;;;;;;0.00;0.00;;;22.90;70.00;;;;;;4990815;28;20042;-89
2021/08/13 05:15:38;;;;;;;0.00;0.00;;;23.60;68.90;;;;;;4988059;28;20034;-89
2021/08/13 05:18:05;;;;;;;0.00;0.00;;;24.20;67.70;;;;;;4986487;28;20033;-90
2021/08/13 05:20:31;;;;;;;0.00;0.00;;;24.70;66.30;;;;;;5006051;28;20102;-88
2021/08/13 05:22:57;;;;;;;0.00;0.00;;;25.20;64.60;;;;;;4981739;28;20065;-89
2021/08/13 05:25:23;;;;;;;0.00;0.00;;;25.50;64.20;;;;;;5005065;28;20019;-88
2021/08/13 05:27:49;;;;;;;0.00;0.00;;;25.90;63.40;;;;;;5004029;28;20034;-89
2021/08/13 05:30:15;;;;;;;0.00;0.00;;;26.10;62.70;;;;;;5003870;28;20029;-88
2021/08/13 05:32:44;;;;;;;0.00;0.00;;;26.50;62.00;;;;;;4983264;28;20065;-87
2021/08/13 05:35:11;;;;;;;0.00;0.00;;;26.70;61.00;;;;;;4980768;28;20034;-88
2021/08/13 05:37:37;;;;;;;0.00;0.00;;;27.10;60.50;;;;;;4981190;28;20089;-87
2021/08/13 05:40:04;;;;;;;0.00;0.00;;;27.30;59.90;;;;;;4981931;28;20018;-87
2021/08/13 05:42:30;;;;;;;0.00;0.00;;;27.50;59.70;;;;;;4985167;28;20034;-87
2021/08/13 05:44:56;;;;;;;0.00;0.00;;;27.70;58.80;;;;;;4984083;28;20476;-89
2021/08/13 05:47:22;;;;;;;0.00;0.00;;;27.80;58.50;;;;;;4983093;28;20034;-87
2021/08/13 05:49:48;;;;;;;0.00;0.00;;;28.00;58.00;;;;;;4983430;28;20027;-86
2021/08/13 05:52:14;;;;;;;0.00;0.00;;;28.10;57.40;;;;;;4986662;28;20034;-87
2021/08/13 05:54:40;;;;;;;0.00;0.00;;;28.50;56.90;;;;;;4990131;28;20034;-88
2021/08/13 05:57:06;;;;;;;0.00;0.00;;;28.50;56.40;;;;;;4988707;28;20026;-88
2021/08/13 05:59:32;;;;;;;0.00;0.00;;;28.60;56.30;;;;;;4988109;28;20031;-90
2021/08/13 06:01:58;;;;;;;0.00;0.00;;;28.90;56.20;;;;;;4981342;28;20088;-87
2021/08/13 06:04:23;;;;;;;0.00;0.00;;;29.10;55.60;;;;;;4980817;28;20022;-88
2021/08/13 06:06:49;;;;;;;0.00;0.00;;;29.30;55.40;;;;;;4983800;28;20078;-88
2021/08/13 06:09:15;;;;;;;0.00;0.00;;;29.50;54.70;;;;;;4983262;28;20093;-88
2021/08/13 06:11:41;;;;;;;0.00;0.00;;;29.80;54.60;;;;;;4979600;28;20038;-89
2021/08/13 06:14:07;;;;;;;0.00;0.00;;;29.90;53.80;;;;;;4979516;28;20026;-87
2021/08/13 06:16:33;;;;;;;0.00;0.00;;;30.10;53.80;;;;;;4980252;28;20408;-88
2021/08/13 06:18:59;;;;;;;0.00;0.00;;;30.30;53.60;;;;;;4981571;28;20023;-87
2021/08/13 06:21:24;;;;;;;0.00;0.00;;;30.50;53.30;;;;;;4995698;28;20077;-88
2021/08/13 06:23:50;;;;;;;0.00;0.00;;;30.90;52.90;;;;;;4999135;28;20495;-88
2021/08/13 06:26:16;;;;;;;0.00;0.00;;;31.20;52.10;;;;;;5009460;28;20057;-88
2021/08/13 06:28:41;;;;;;;0.00;0.00;;;31.30;52.00;;;;;;4979838;28;20140;-88
2021/08/13 06:31:07;;;;;;;0.00;0.00;;;31.70;51.80;;;;;;4979252;28;20026;-88
2021/08/13 06:33:33;;;;;;;0.00;0.00;;;32.00;51.50;;;;;;4979739;28;20112;-88
2021/08/13 06:35:59;;;;;;;0.03;0.03;;;32.40;51.10;;;;;;4978676;28;20035;-88
2021/08/13 06:38:24;;;;;;;0.00;0.00;;;33.00;50.60;;;;;;4981533;28;20026;-87
2021/08/13 06:40:50;;;;;;;0.00;0.00;;;33.50;50.10;;;;;;4999090;28;20022;-85
2021/08/13 06:43:16;;;;;;;0.00;0.00;;;33.80;49.00;;;;;;4980139;28;20060;-87
2021/08/13 06:45:42;;;;;;;0.00;0.00;;;33.90;48.30;;;;;;4993450;28;20034;-88
2021/08/13 06:48:07;;;;;;;0.00;0.00;;;34.10;48.10;;;;;;4998440;28;20014;-87
2021/08/13 06:50:33;;;;;;;0.00;0.00;;;34.40;48.00;;;;;;4997669;28;20094;-86
2021/08/13 06:52:59;;;;;;;0.00;0.00;;;34.60;47.60;;;;;;5001568;28;20034;-85
2021/08/13 06:55:24;;;;;;;0.00;0.00;;;35.00;47.10;;;;;;5010528;28;20038;-88
2021/08/13 06:57:50;;;;;;;0.00;0.00;;;35.10;46.90;;;;;;4996163;28;20080;-87
2021/08/13 07:00:17;;;;;;;0.00;0.00;;;35.20;46.50;;;;;;4978865;28;20109;-87
2021/08/13 07:02:49;;;;;;;0.00;0.00;;;35.40;46.40;;;;;;4984089;28;20026;-87
2021/08/13 07:05:16;;;;;;;0.00;0.00;;;35.70;46.20;;;;;;4980075;28;20030;-89
2021/08/13 07:07:42;;;;;;;0.00;0.00;;;35.70;45.90;;;;;;4981125;28;20041;-88
2021/08/13 07:10:10;;;;;;;0.10;0.10;;;35.60;45.70;;;;;;4978625;28;20038;-87
2021/08/13 07:12:36;;;;;;;0.00;0.00;;;35.60;45.80;;;;;;4978488;28;20030;-88
2021/08/13 07:15:04;;;;;;;0.10;0.10;;;35.70;45.80;;;;;;4978843;28;20108;-88
2021/08/13 07:17:29;;;;;;;0.03;0.03;;;35.80;45.20;;;;;;4978525;28;20399;-89
2021/08/13 07:19:55;;;;;;;0.10;0.10;;;35.70;45.10;;;;;;4980173;28;20030;-90
2021/08/13 07:22:21;;;;;;;0.00;0.00;;;35.70;45.40;;;;;;4978857;28;20042;-88
2021/08/13 07:24:46;;;;;;;0.00;0.00;;;36.00;45.40;;;;;;4978543;28;20023;-88
2021/08/13 07:27:12;;;;;;;0.00;0.00;;;36.20;45.00;;;;;;4978480;28;20438;-89
2021/08/13 07:29:38;;;;;;;0.00;0.00;;;36.40;44.90;;;;;;4978686;28;20027;-88
2021/08/13 07:32:04;;;;;;;0.00;0.00;;;36.50;44.60;;;;;;4978068;28;20052;-89
2021/08/13 07:34:29;;;;;;;0.08;0.08;;;36.60;44.50;;;;;;4981474;28;20057;-89
2021/08/13 07:36:55;;;;;;;0.00;0.00;;;36.70;44.40;;;;;;4978697;28;20093;-88
2021/08/13 07:39:21;;;;;;;0.10;0.10;;;36.70;44.10;;;;;;4978539;28;20028;-88
2021/08/13 07:41:46;;;;;;;0.10;0.10;;;36.80;44.10;;;;;;4978923;28;20492;-87
2021/08/13 07:44:12;;;;;;;0.00;0.00;;;36.90;43.30;;;;;;4978120;28;20027;-87
2021/08/13 07:46:38;;;;;;;0.00;0.00;;;36.50;43.40;;;;;;4978050;28;20088;-89
2021/08/13 07:49:04;;;;;;;0.00;0.00;;;36.40;43.60;;;;;;4978322;28;20033;-87
2021/08/13 07:51:30;;;;;;;0.00;0.00;;;36.40;43.70;;;;;;4978688;28;20126;-87
2021/08/13 07:53:56;;;;;;;0.00;0.00;;;36.20;43.50;;;;;;4980394;28;20061;-88
2021/08/13 07:56:21;;;;;;;0.00;0.00;;;36.10;43.50;;;;;;4980460;28;20089;-88
2021/08/13 07:58:47;;;;;;;0.05;0.05;;;35.80;42.80;;;;;;4981639;28;20030;-87
2021/08/13 08:01:13;;;;;;;0.00;0.00;;;35.40;42.40;;;;;;4977125;28;20355;-87
2021/08/13 08:03:38;;;;;;;0.10;0.10;;;34.90;42.90;;;;;;4978090;28;20029;-88
2021/08/13 08:06:05;;;;;;;0.00;0.00;;;35.00;43.80;;;;;;4978620;28;20448;-88
2021/08/13 08:08:30;;;;;;;0.05;0.05;;;35.70;43.70;;;;;;4978170;28;20073;-88
2021/08/13 08:10:56;;;;;;;0.00;0.00;;;36.30;43.20;;;;;;5000172;28;20018;-87
2021/08/13 08:13:22;;;;;;;0.00;0.00;;;36.90;42.80;;;;;;5006468;28;20533;-90
2021/08/13 08:15:48;;;;;;;0.10;0.10;;;37.50;42.40;;;;;;4994508;28;20061;-87
2021/08/13 08:18:14;;;;;;;0.00;0.00;;;37.80;41.90;;;;;;4998134;28;20025;-88
2021/08/13 08:20:40;;;;;;;0.10;0.10;;;37.70;41.40;;;;;;5009889;28;20030;-88
2021/08/13 08:23:06;;;;;;;0.10;0.10;;;37.70;41.30;;;;;;4996561;28;20038;-87
2021/08/13 08:25:32;;;;;;;0.08;0.08;;;37.90;41.20;;;;;;4981230;28;20035;-87
2021/08/13 08:27:59;;;;;;;0.10;0.10;;;38.20;40.70;;;;;;4995707;28;20080;-86
2021/08/13 08:30:25;;;;;;;0.10;0.10;;;38.70;40.50;;;;;;4995244;28;20031;-87
2021/08/13 08:32:51;;;;;;;0.10;0.10;;;39.00;40.10;;;;;;5000255;28;20026;-88
2021/08/13 08:35:16;;;;;;;0.10;0.10;;;39.50;39.70;;;;;;4975781;28;20133;-88
2021/08/13 08:37:53;;;;;;;;;;;39.80;39.20;;;;;;4978755;28;20030;-87
2021/08/13 08:40:36;;;;;;;0.10;0.10;;;39.90;38.60;;;;;;4977291;28;20942;-86
2021/08/13 08:43:05;;;;;;;0.10;0.10;;;41.60;36.20;;;;;;4999514;28;20034;-89
2021/08/13 08:45:33;;;;;;;0.10;0.10;;;40.70;36.90;;;;;;4991070;28;20029;-88
2021/08/13 08:48:02;;;;;;;0.10;0.10;;;40.10;37.40;;;;;;4990749;28;20034;-89
2021/08/13 08:50:30;;;;;;;0.10;0.10;;;39.80;37.80;;;;;;4991493;28;20023;-89
2021/08/13 08:53:02;;;;;;;0.10;0.10;;;39.60;37.70;;;;;;4983415;28;20031;-87
2021/08/13 08:55:28;;;;;;;0.10;0.10;;;39.60;37.50;;;;;;5002181;28;20042;-89
2021/08/13 08:57:55;;;;;;;0.10;0.10;;;39.60;37.60;;;;;;4985788;28;20034;-89
2021/08/13 09:00:22;;;;;;;0.10;0.10;;;39.80;37.80;;;;;;4982797;28;20027;-88
2021/08/13 09:02:49;;;;;;;0.10;0.10;;;40.00;37.50;;;;;;4985446;28;20118;-88
2021/08/13 09:05:15;;;;;;;0.10;0.10;;;40.40;37.50;;;;;;4990117;28;20076;-89
2021/08/13 09:07:41;;;;;;;0.10;0.10;;;40.60;37.10;;;;;;4993390;28;20026;-89
2021/08/13 09:10:12;;;;;;;0.10;0.10;;;40.70;37.10;;;;;;4987711;28;20442;-88
2021/08/13 09:12:39;;;;;;;0.10;0.10;;;40.90;36.60;;;;;;4999753;28;20041;-88
2021/08/13 09:15:24;;;;;;;0.00;0.00;;;40.60;36.70;;;;;;4981239;28;20041;-88
2021/08/13 09:18:15;;;;;;;0.10;0.10;;;40.10;36.90;;;;;;4981035;28;20464;-89
2021/08/13 09:21:00;;;;;;;0.10;0.10;;;39.20;37.30;;;;;;4979743;28;20031;-89
2021/08/13 09:23:32;;;;;;;0.10;0.10;;;38.50;38.20;;;;;;4982340;28;20058;-88
2021/08/13 09:26:01;;;;;;;0.03;0.03;;;38.70;38.50;;;;;;4982145;28;20438;-87
2021/08/13 09:28:46;;;;;;;0.10;0.10;;;39.00;38.30;;;;;;5002437;28;20050;-88
2021/08/13 09:31:15;;;;;;;0.10;0.10;;;38.80;38.00;;;;;;4987687;28;20068;-87
2021/08/13 09:33:42;;;;;;;0.10;0.10;;;38.90;38.20;;;;;;4985009;28;20049;-88
2021/08/13 09:36:08;;;;;;;0.10;0.10;;;39.20;38.00;;;;;;5003361;28;20109;-89
2021/08/13 09:38:34;;;;;;;0.10;0.10;;;39.60;37.60;;;;;;4989126;28;20070;-89
2021/08/13 09:41:12;;;;;;;0.10;0.10;;;40.10;37.50;;;;;;4986314;28;20019;-88
2021/08/13 09:43:59;;;;;;;0.10;0.10;;;40.60;36.90;;;;;;4982872;28;20026;-88
2021/08/13 09:46:26;;;;;;;0.10;0.10;;;40.80;36.10;;;;;;4979760;28;20030;-89
2021/08/13 09:48:52;;;;;;;0.10;0.10;;;40.90;36.40;;;;;;4979766;28;20057;-89
2021/08/13 09:51:31;;;;;;;0.10;0.10;;;40.80;36.20;;;;;;4983661;28;20077;-89
2021/08/13 09:54:03;;;;;;;0.10;0.10;;;40.60;35.80;;;;;;4982738;28;20061;-88
2021/08/13 09:56:32;;;;;;;0.10;0.10;;;40.30;36.00;;;;;;4979918;28;20034;-87
2021/08/13 09:59:17;;;;;;;0.10;0.10;;;40.60;36.30;;;;;;4995184;28;20037;-88
2021/08/13 10:01:50;;;;;;;0.10;0.10;;;41.30;35.50;;;;;;4998250;28;20039;-87
2021/08/13 10:04:18;;;;;;;0.10;0.10;;;41.40;35.40;;;;;;4984772;28;20034;-86
2021/08/13 10:06:45;;;;;;;0.10;0.10;;;41.60;35.20;;;;;;5000632;28;20030;-87
2021/08/13 10:09:23;;;;;;;0.10;0.10;;;41.70;35.30;;;;;;4979802;28;20117;-87
2021/08/13 10:12:06;;;;;;;0.10;0.10;;;41.90;35.50;;;;;;4982164;28;20057;-87
2021/08/13 10:14:40;;;;;;;0.10;0.10;;;42.00;35.00;;;;;;4997867;28;20038;-88
2021/08/13 10:17:16;;;;;;;0.20;0.20;;;42.20;34.80;;;;;;5000744;28;20030;-87
2021/08/13 10:19:50;;;;;;;0.10;0.10;;;42.50;34.70;;;;;;5007084;28;20041;-88
2021/08/13 10:22:18;;;;;;;0.20;0.20;;;42.70;34.60;;;;;;4981238;28;20034;-88
2021/08/13 10:24:45;;;;;;;0.20;0.20;;;43.00;34.60;;;;;;4980621;28;20064;-87
2021/08/13 10:27:15;;;;;;;0.15;0.15;;;43.30;34.40;;;;;;4997006;28;20388;-87
2021/08/13 10:29:43;;;;;;;0.17;0.17;;;43.50;33.90;;;;;;4979930;28;20060;-87
2021/08/13 10:32:09;;;;;;;0.20;0.20;;;43.60;33.80;;;;;;4981603;28;20054;-88
2021/08/13 10:34:35;;;;;;;0.10;0.10;;;43.60;33.60;;;;;;4998806;28;20033;-87
2021/08/13 10:37:12;;;;;;;0.20;0.20;;;43.30;33.70;;;;;;4987269;28;20058;-88
2021/08/13 10:39:40;;;;;;;0.10;0.10;;;43.30;33.30;;;;;;4993540;28;20026;-88
2021/08/13 10:42:07;;;;;;;0.15;0.15;;;43.50;33.70;;;;;;4996593;28;20049;-85
2021/08/13 10:44:43;;;;;;;0.10;0.10;;;43.90;33.60;;;;;;5004445;28;20022;-86
2021/08/13 10:47:14;;;;;;;0.10;0.10;;;43.80;33.30;;;;;;4980962;28;20038;-88
2021/08/13 10:49:46;;;;;;;0.20;0.20;;;43.50;33.40;;;;;;4979479;28;20026;-87
2021/08/13 10:52:12;;;;;;;0.15;0.15;;;42.90;33.40;;;;;;4979166;28;20030;-89
2021/08/13 10:54:46;;;;;;;0.10;0.10;;;42.90;33.80;;;;;;4979477;28;20045;-86
2021/08/13 10:57:13;;;;;;;0.10;0.10;;;43.30;33.60;;;;;;4979765;28;20572;-88
2021/08/13 10:59:41;;;;;;;0.10;0.10;;;43.30;33.60;;;;;;4980752;28;20102;-87
2021/08/13 11:02:12;;;;;;;0.13;0.13;;;43.40;33.60;;;;;;5000737;28;20023;-88
2021/08/13 11:04:46;;;;;;;0.10;0.10;;;43.60;34.00;;;;;;5001931;28;20105;-89
2021/08/13 11:07:12;;;;;;;0.10;0.10;;;43.80;33.00;;;;;;4987264;28;20395;-90
2021/08/13 11:09:39;;;;;;;0.10;0.10;;;44.00;33.30;;;;;;4979177;28;20169;-89
2021/08/13 11:12:11;;;;;;;0.20;0.20;;;43.90;33.30;;;;;;4978674;28;20483;-89
2021/08/13 11:14:52;;;;;;;0.10;0.10;;;44.10;33.40;;;;;;4978542;28;20037;-90
2021/08/13 11:17:44;;;;;;;0.10;0.10;;;44.20;33.30;;;;;;4978864;28;20176;-89
2021/08/13 11:20:14;;;;;;;0.10;0.10;;;44.30;32.90;;;;;;4981742;28;20113;-88
2021/08/13 11:22:42;;;;;;;0.10;0.10;;;43.90;32.90;;;;;;4979824;28;20053;-89
2021/08/13 11:25:10;;;;;;;0.10;0.10;;;43.60;33.10;;;;;;4978836;28;20039;-88
2021/08/13 11:27:36;;;;;;;0.10;0.10;;;43.60;33.30;;;;;;4978886;28;20022;-88
2021/08/13 11:30:04;;;;;;;0.10;0.10;;;43.60;33.00;;;;;;4979095;28;20038;-89
2021/08/13 11:32:37;;;;;;;0.10;0.10;;;43.70;33.10;;;;;;4996702;28;20532;-88
2021/08/13 11:35:10;;;;;;;0.10;0.10;;;43.90;32.80;;;;;;4980982;28;20042;-87
2021/08/13 11:37:38;;;;;;;0.10;0.10;;;44.00;32.60;;;;;;5000318;28;20050;-89
2021/08/13 11:40:29;;;;;;;0.10;0.10;;;43.80;32.60;;;;;;4968878;28;20510;-90
2021/08/13 11:42:59;;;;;;;0.10;0.10;;;43.70;32.90;;;;;;4986048;28;20022;-90
2021/08/13 11:45:45;;;;;;;0.10;0.10;;;43.60;33.40;;;;;;4986639;28;20034;-90
2021/08/13 11:48:12;;;;;;;0.10;0.10;;;43.40;32.50;;;;;;5010754;28;20014;-89
2021/08/13 11:50:39;;;;;;;0.10;0.10;;;43.00;32.80;;;;;;5000853;28;20031;-90
2021/08/13 11:53:05;;;;;;;0.10;0.10;;;43.10;33.10;;;;;;4992382;28;20030;-89
2021/08/13 11:55:33;;;;;;;0.10;0.10;;;43.10;32.90;;;;;;4976393;28;20049;-87
2021/08/13 11:58:02;;;;;;;0.10;0.10;;;43.00;32.90;;;;;;4975792;28;20022;-88
2021/08/13 12:00:30;;;;;;;0.10;0.10;;;43.10;33.00;;;;;;4977132;28;20018;-88
2021/08/13 12:03:00;;;;;;;0.10;0.10;;;43.20;32.70;;;;;;4981691;28;20034;-89
2021/08/13 12:05:34;;;;;;;0.10;0.10;;;43.60;32.80;;;;;;4996592;28;20022;-90
2021/08/13 12:08:12;;;;;;;0.10;0.10;;;44.00;32.60;;;;;;4977220;28;20390;-90
2021/08/13 12:10:48;;;;;;;0.10;0.10;;;44.00;32.40;;;;;;4977497;28;20031;-90
2021/08/13 12:13:14;;;;;;;0.10;0.10;;;43.90;32.50;;;;;;4977770;28;20096;-89
2021/08/13 12:15:42;;;;;;;0.10;0.10;;;44.00;32.50;;;;;;4995875;28;20499;-90
2021/08/13 12:18:09;;;;;;;0.10;0.10;;;43.70;32.30;;;;;;4977729;28;20109;-90
2021/08/13 12:20:48;;;;;;;0.10;0.10;;;43.60;32.50;;;;;;4994752;28;20018;-89
2021/08/13 12:23:13;;;;;;;0.10;0.10;;;43.20;32.50;;;;;;4979749;28;20181;-89
2021/08/13 12:25:44;;;;;;;0.10;0.10;;;42.70;32.70;;;;;;4990251;28;20475;-88
2021/08/13 12:28:11;;;;;;;0.10;0.10;;;42.60;32.60;;;;;;4993284;28;20019;-89
2021/08/13 12:30:40;;;;;;;0.10;0.10;;;42.30;32.80;;;;;;4998294;28;20049;-89
2021/08/13 12:33:12;;;;;;;0.00;0.00;;;42.20;33.00;;;;;;4997269;28;20073;-89
2021/08/13 12:35:40;;;;;;;0.10;0.10;;;42.30;32.90;;;;;;4995009;28;20046;-89
2021/08/13 12:38:08;;;;;;;0.00;0.00;;;41.70;32.50;;;;;;4991751;28;20030;-89
2021/08/13 12:40:42;;;;;;;0.10;0.10;;;41.20;33.20;;;;;;4995528;28;20027;-89
2021/08/13 12:43:09;;;;;;;0.10;0.10;;;41.40;33.30;;;;;;4980952;28;20030;-88
2021/08/13 12:45:36;;;;;;;0.10;0.10;;;41.80;33.20;;;;;;4978146;28;20026;-89
2021/08/13 12:48:02;;;;;;;0.10;0.10;;;41.80;33.00;;;;;;4976542;28;20031;-89
2021/08/13 12:50:31;;;;;;;0.00;0.00;;;41.30;33.10;;;;;;4977146;28;20040;-89
2021/08/13 12:53:08;;;;;;;0.00;0.00;;;40.70;33.50;;;;;;4978051;28;20121;-89